Time;durP1;ratioP1;P1;durP2;ratioP2;P2;SDS_P1;SDS_P2;PMS_P1;PMS_P2;Temp;Humidity;BMP_temperature;BMP_pressure;BME280_temperature;BME280_humidity;BME280_pressure;Samples;Min_cycle;Max_cycle;Signal;HPM_P1;HPM_P2
2022/11/19 00:00:36;;;;;;;;;;;;;;;-142.75;100.00;77481.81;5106604;27;20901;-66
2022/11/19 00:03:01;;;;;;;;;;;;;;;-142.75;100.00;77479.84;5105762;27;19919;-63
2022/11/19 00:05:27;;;;;;;;;;;;;;;-142.75;100.00;77495.59;5105604;27;19971;-66
2022/11/19 00:07:52;;;;;;;;;;;;;;;-142.75;100.00;77479.84;5105154;27;19911;-62
2022/11/19 00:10:17;;;;;;;;;;;;;;;-142.75;100.00;77477.88;5086985;27;19916;-64
2022/11/19 00:12:54;;;;;;;;;;;;;;;-142.75;100.00;77483.78;5106319;27;19912;-66
2022/11/19 00:15:20;;;;;;;;;;;;;;;-142.75;100.00;77479.84;5107414;27;19927;-66
2022/11/19 00:17:45;;;;;;;;;;;;;;;-142.75;100.00;77499.53;5087467;27;19912;-64
2022/11/19 00:20:10;;;;;;;;;;;;;;;-142.75;100.00;77507.41;5111246;27;19934;-64
2022/11/19 00:22:35;;;;;;;;;;;;;;;-142.75;100.00;77521.19;5110298;27;20296;-65
2022/11/19 00:25:01;;;;;;;;;;;;;;;-142.75;100.00;77531.03;5106192;27;19963;-65
2022/11/19 00:27:26;;;;;;;;;;;;;;;-142.75;100.00;77548.75;5087281;27;19912;-65
2022/11/19 00:29:51;;;;;;;;;;;;;;;-142.75;100.00;77554.66;5117872;27;19919;-62
2022/11/19 00:32:16;;;;;;;;;;;;;;;-142.75;100.00;77562.53;5126747;27;20391;-66
2022/11/19 00:34:41;;;;;;;;;;;;;;;-142.75;100.00;77564.50;5126052;27;19911;-64
2022/11/19 00:37:07;;;;;;;;;;;;;;;-142.75;100.00;77562.53;5125501;27;19911;-65
2022/11/19 00:39:32;;;;;;;;;;;;;;;-142.75;100.00;77578.28;5125681;27;19911;-66
2022/11/19 00:41:57;;;;;;;;;;;;;;;-142.75;100.00;77580.25;5107442;27;19915;-66
2022/11/19 00:44:22;;;;;;;;;;;;;;;-142.75;100.00;77570.41;5073212;27;20787;-63
2022/11/19 00:46:48;;;;;;;;;;;;;;;-142.75;100.00;77572.38;5054071;27;19915;-64
2022/11/19 00:49:13;;;;;;;;;;;;;;;-142.75;100.00;77580.25;5054971;27;20377;-64
2022/11/19 00:51:38;;;;;;;;;;;;;;;-142.75;100.00;77580.25;5058610;27;20276;-64
2022/11/19 00:54:03;;;;;;;;;;;;;;;-142.75;100.00;77578.28;5039517;27;20221;-64
2022/11/19 00:56:29;;;;;;;;;;;;;;;-142.75;100.00;77605.84;5043933;27;20333;-64
2022/11/19 00:58:54;;;;;;;;;;;;;;;-142.75;100.00;77607.81;5048795;27;20266;-64
2022/11/19 01:01:21;;;;;;;;;;;;;;;-142.75;100.00;77615.69;5047689;27;19916;-66
2022/11/19 01:03:46;;;;;;;;;;;;;;;-142.75;100.00;77613.72;5096922;27;19964;-66
2022/11/19 01:06:13;;;;;;;;;;;;;;;-142.75;100.00;77603.88;5122566;27;19915;-65
2022/11/19 01:08:38;;;;;;;;;;;;;;;-142.75;100.00;77615.69;5121065;27;20315;-65
2022/11/19 01:11:25;;;;;;;;;;;;;;;-142.75;100.00;77621.59;5122469;27;19911;-62
2022/11/19 01:13:50;;;;;;;;;;;;;;;-142.75;100.00;77613.72;5103810;27;19918;-64
2022/11/19 01:16:18;;;;;;;;;;;;;;;-142.75;100.00;77623.56;5122120;27;19911;-63
2022/11/19 01:18:44;;;;;;;;;;;;;;;-142.75;100.00;77617.66;5121031;27;19912;-65
2022/11/19 01:21:10;;;;;;;;;;;;;;;-142.75;100.00;77623.56;5122336;27;19919;-63
2022/11/19 01:23:35;;;;;;;;;;;;;;;-142.75;100.00;77625.53;5121822;27;19911;-65
2022/11/19 01:26:01;;;;;;;;;;;;;;;-142.75;100.00;77647.19;5122194;27;19915;-66
2022/11/19 01:28:26;;;;;;;;;;;;;;;-142.75;100.00;77625.53;5120645;27;19918;-67
2022/11/19 01:30:52;;;;;;;;;;;;;;;-142.75;100.00;77633.41;5104693;27;19951;-64
2022/11/19 01:33:17;;;;;;;;;;;;;;;-142.75;100.00;77639.31;5121558;27;19919;-64
2022/11/19 01:35:42;;;;;;;;;;;;;;;-142.75;100.00;77676.72;5121803;27;19960;-65
2022/11/19 01:38:08;;;;;;;;;;;;;;;-142.75;100.00;77678.69;5121195;27;19911;-64
2022/11/19 01:40:39;;;;;;;;;;;;;;;-142.75;100.00;77690.50;5121354;27;19911;-66
2022/11/19 01:43:08;;;;;;;;;;;;;;;-142.75;100.00;77684.59;5121696;27;19956;-65
2022/11/19 01:45:44;;;;;;;;;;;;;;;-142.75;100.00;77692.47;5121231;27;19911;-65
2022/11/19 01:48:29;;;;;;;;;;;;;;;-142.75;100.00;77690.50;5120877;27;19911;-62
2022/11/19 01:50:57;;;;;;;;;;;;;;;-142.75;100.00;77716.09;5103064;27;19915;-65
2022/11/19 01:53:26;;;;;;;;;;;;;;;-142.75;100.00;77720.03;5121156;27;19911;-62
2022/11/19 01:55:51;;;;;;;;;;;;;;;-142.75;100.00;77692.47;5121534;27;19919;-64
2022/11/19 01:58:19;;;;;;;;;;;;;;;-142.75;100.00;77706.25;5102043;27;19945;-66
2022/11/19 02:00:44;;;;;;;;;;;;;;;-142.75;100.00;77712.16;5122336;27;19950;-65
2022/11/19 02:03:10;;;;;;;;;;;;;;;-142.75;100.00;77710.19;5121349;27;19993;-65
2022/11/19 02:05:35;;;;;;;;;;;;;;;-142.75;100.00;77716.09;5120785;27;19911;-64
2022/11/19 02:08:04;;;;;;;;;;;;;;;-142.75;100.00;77706.25;5102202;27;19911;-66
2022/11/19 02:10:41;;;;;;;;;;;;;;;-142.75;100.00;77718.06;5120054;27;19922;-67
2022/11/19 02:13:23;;;;;;;;;;;;;;;-142.75;100.00;77739.75;5121634;27;19998;-63
2022/11/19 02:16:11;;;;;;;;;;;;;;;-142.75;100.00;77733.84;5121240;27;19998;-63
2022/11/19 02:18:44;;;;;;;;;;;;;;;-142.75;100.00;77747.63;5110385;27;19912;-65
2022/11/19 02:21:12;;;;;;;;;;;;;;;-142.75;100.00;77747.63;5082483;28;19911;-64
2022/11/19 02:24:12;;;;;;;;;;;;;;;-142.75;100.00;77765.34;5100077;28;19912;-64
2022/11/19 02:26:41;;;;;;;;;;;;;;;-142.75;100.00;77771.25;4978150;28;19949;-62
2022/11/19 02:29:06;;;;;;;;;;;;;;;-142.75;100.00;77769.28;5075754;28;19911;-66
2022/11/19 02:31:40;;;;;;;;;;;;;;;-142.75;100.00;77771.25;5082861;28;19990;-65
2022/11/19 02:34:10;;;;;;;;;;;;;;;-142.75;100.00;77759.44;5100060;28;19919;-65
2022/11/19 02:36:42;;;;;;;;;;;;;;;-142.75;100.00;77761.41;5099439;28;20400;-65
2022/11/19 02:39:24;;;;;;;;;;;;;;;-142.75;100.00;77769.28;5082086;28;19912;-66
2022/11/19 02:41:52;;;;;;;;;;;;;;;-142.75;100.00;77775.19;5100152;27;19912;-65
2022/11/19 02:47:13;;;;;;;;;;;;;;;-142.75;100.00;77810.63;5099870;28;19956;-65
2022/11/19 02:49:42;;;;;;;;;;;;;;;-142.75;100.00;77816.53;5099559;28;19908;-64
2022/11/19 02:52:08;;;;;;;;;;;;;;;-142.75;100.00;77802.75;5099982;27;19926;-66
2022/11/19 02:54:33;;;;;;;;;;;;;;;-142.75;100.00;77820.47;5099485;28;20312;-65
2022/11/19 02:56:58;;;;;;;;;;;;;;;-142.75;100.00;77818.50;5099222;27;20289;-65
2022/11/19 03:05:07;;;;;;;;;;;;;;;-142.75;100.00;77810.63;5099994;28;19918;-67
2022/11/19 03:07:32;;;;;;;;;;;;;;;-142.75;100.00;77814.56;5098640;28;19911;-68
2022/11/19 03:10:00;;;;;;;;;;;;;;;-142.75;100.00;77806.69;5086613;28;19911;-67
2022/11/19 03:12:44;;;;;;;;;;;;;;;-142.75;100.00;77814.56;5078849;28;19969;-67
2022/11/19 03:18:17;;;;;;;;;;;;;;;-142.75;100.00;77812.59;5079036;28;19919;-67
2022/11/19 03:20:49;;;;;;;;;;;;;;;-142.75;100.00;77822.44;5078867;28;19919;-68
2022/11/19 03:23:22;;;;;;;;;;;;;;;-142.75;100.00;77822.44;5078879;28;19912;-68
2022/11/19 03:26:10;;;;;;;;;;;;;;;-142.75;100.00;77842.13;5079323;28;19912;-67
2022/11/19 03:28:37;;;;;;;;;;;;;;;-142.75;100.00;77857.88;5077106;28;19912;-66
2022/11/19 03:31:03;;;;;;;;;;;;;;;-142.75;100.00;77867.72;5079850;28;19919;-67
2022/11/19 03:33:28;;;;;;;;;;;;;;;-142.75;100.00;77842.13;5078457;28;20444;-67
2022/11/19 03:36:03;;;;;;;;;;;;;;;-142.75;100.00;77850.00;5079011;28;19969;-67
2022/11/19 03:38:31;;;;;;;;;;;;;;;-142.75;100.00;77846.06;5077723;28;19912;-67
2022/11/19 03:40:56;;;;;;;;;;;;;;;-142.75;100.00;77850.00;5079109;28;19920;-67
2022/11/19 03:43:25;;;;;;;;;;;;;;;-142.75;100.00;77861.81;5078730;28;19912;-68
2022/11/19 03:45:53;;;;;;;;;;;;;;;-142.75;100.00;77877.56;5079052;28;19912;-67
2022/11/19 03:48:19;;;;;;;;;;;;;;;-142.75;100.00;77895.28;5078078;28;20019;-67
2022/11/19 03:50:56;;;;;;;;;;;;;;;-142.75;100.00;77885.44;5078739;28;19947;-67
2022/11/19 03:53:22;;;;;;;;;;;;;;;-142.75;100.00;77881.50;5078428;28;20663;-67
2022/11/19 03:55:53;;;;;;;;;;;;;;;-142.75;100.00;77889.38;5084796;28;20003;-67
2022/11/19 03:58:22;;;;;;;;;;;;;;;-142.75;100.00;77901.19;5078090;28;19912;-70
2022/11/19 04:00:47;;;;;;;;;;;;;;;-142.75;100.00;77879.53;5061503;28;19927;-67
2022/11/19 04:03:12;;;;;;;;;;;;;;;-142.75;100.00;77893.31;5079195;28;19912;-67
2022/11/19 04:05:37;;;;;;;;;;;;;;;-142.75;100.00;77901.19;5078230;28;19912;-67
2022/11/19 04:08:02;;;;;;;;;;;;;;;-142.75;100.00;77913.03;5078176;28;20053;-67
2022/11/19 04:10:28;;;;;;;;;;;;;;;-142.75;100.00;77905.13;5078134;28;19912;-67
2022/11/19 04:12:53;;;;;;;;;;;;;;;-142.75;100.00;77911.06;5078853;28;19947;-69
2022/11/19 04:15:18;;;;;;;;;;;;;;;-142.75;100.00;77916.97;5078451;28;19994;-67
2022/11/19 04:17:43;;;;;;;;;;;;;;;-142.75;100.00;77893.31;5077473;28;19912;-67
2022/11/19 04:20:09;;;;;;;;;;;;;;;-142.75;100.00;77903.16;5078326;28;19916;-67
2022/11/19 04:22:34;;;;;;;;;;;;;;;-142.75;100.00;77897.25;5077418;28;19912;-67
2022/11/19 04:24:59;;;;;;;;;;;;;;;-142.75;100.00;77893.31;5078023;28;20610;-67
2022/11/19 04:27:24;;;;;;;;;;;;;;;-142.75;100.00;77907.09;5077034;28;19955;-67
2022/11/19 04:29:49;;;;;;;;;;;;;;;-142.75;100.00;77913.03;5077960;28;19914;-67
2022/11/19 04:32:15;;;;;;;;;;;;;;;-142.75;100.00;77913.03;5079021;28;19955;-67
2022/11/19 04:34:40;;;;;;;;;;;;;;;-142.75;100.00;77932.72;5081425;28;19912;-67
2022/11/19 04:37:05;;;;;;;;;;;;;;;-142.75;100.00;77940.59;5094102;28;19996;-67
2022/11/19 04:39:30;;;;;;;;;;;;;;;-142.75;100.00;77960.28;5101301;28;19919;-67
2022/11/19 04:41:55;;;;;;;;;;;;;;;-142.75;100.00;77956.34;5101938;28;20126;-67
2022/11/19 04:44:21;;;;;;;;;;;;;;;-142.75;100.00;77954.38;5100886;28;19955;-67
2022/11/19 04:46:46;;;;;;;;;;;;;;;-142.75;100.00;77960.28;5101692;28;19919;-67
2022/11/19 04:49:11;;;;;;;;;;;;;;;-142.75;100.00;77970.13;5103012;28;19969;-67
2022/11/19 04:51:36;;;;;;;;;;;;;;;-142.75;100.00;77997.69;5103937;28;20375;-69
2022/11/19 04:54:02;;;;;;;;;;;;;;;-142.75;100.00;78003.59;5104315;28;19946;-69
2022/11/19 04:56:27;;;;;;;;;;;;;;;-142.75;100.00;78011.47;5103450;28;19918;-70
2022/11/19 04:58:52;;;;;;;;;;;;;;;-142.75;100.00;77999.66;5103457;28;19911;-67
2022/11/19 05:01:19;;;;;;;;;;;;;;;-142.75;100.00;78007.53;5103930;28;19919;-67
2022/11/19 05:03:44;;;;;;;;;;;;;;;-142.75;100.00;77997.69;5104053;28;19911;-67
2022/11/19 05:06:09;;;;;;;;;;;;;;;-142.75;100.00;78001.63;5103798;28;19912;-67
2022/11/19 05:08:35;;;;;;;;;;;;;;;-142.75;100.00;78031.16;5102540;28;20300;-69
2022/11/19 05:11:00;;;;;;;;;;;;;;;-142.75;100.00;78027.22;5103956;28;20357;-67
2022/11/19 05:13:25;;;;;;;;;;;;;;;-142.75;100.00;78035.09;5103316;28;19920;-67
2022/11/19 05:15:50;;;;;;;;;;;;;;;-142.75;100.00;78019.34;5103883;28;19911;-67
2022/11/19 05:18:16;;;;;;;;;;;;;;;-142.75;100.00;78054.81;5102756;28;19931;-67
2022/11/19 05:20:41;;;;;;;;;;;;;;;-142.75;100.00;78046.91;5101835;28;19995;-67
2022/11/19 05:23:06;;;;;;;;;;;;;;;-142.75;100.00;78042.97;5102659;28;19915;-67
2022/11/19 05:25:31;;;;;;;;;;;;;;;-142.75;100.00;78025.25;5101711;28;20337;-67
2022/11/19 05:27:57;;;;;;;;;;;;;;;-142.75;100.00;78033.13;5102671;28;20010;-67
2022/11/19 05:30:22;;;;;;;;;;;;;;;-142.75;100.00;78048.88;5102735;28;19912;-67
2022/11/19 05:32:47;;;;;;;;;;;;;;;-142.75;100.00;78042.97;5103428;28;20328;-67
2022/11/19 05:35:12;;;;;;;;;;;;;;;-142.75;100.00;78070.56;5103470;28;20452;-67
2022/11/19 05:37:38;;;;;;;;;;;;;;;-142.75;100.00;78039.03;5102237;28;20038;-67
2022/11/19 05:40:03;;;;;;;;;;;;;;;-142.75;100.00;78058.72;5103216;28;19951;-67
2022/11/19 05:42:29;;;;;;;;;;;;;;;-142.75;100.00;78054.81;5102813;28;19946;-67
2022/11/19 05:44:54;;;;;;;;;;;;;;;-142.75;100.00;78066.63;5102225;28;20066;-67
2022/11/19 05:47:19;;;;;;;;;;;;;;;-142.75;100.00;78082.38;5102187;28;20569;-67
2022/11/19 05:49:44;;;;;;;;;;;;;;;-142.75;100.00;78098.13;5094586;28;19912;-69
2022/11/19 05:52:10;;;;;;;;;;;;;;;-142.75;100.00;78098.13;5103169;28;19908;-70
2022/11/19 05:54:35;;;;;;;;;;;;;;;-142.75;100.00;78111.91;5102543;28;20023;-67
2022/11/19 05:57:00;;;;;;;;;;;;;;;-142.75;100.00;78113.88;5102319;28;19919;-67
2022/11/19 05:59:26;;;;;;;;;;;;;;;-142.75;100.00;78100.09;5102063;28;19915;-67
2022/11/19 06:01:51;;;;;;;;;;;;;;;-142.75;100.00;78113.88;5102957;28;19911;-67
2022/11/19 06:04:16;;;;;;;;;;;;;;;-142.75;100.00;78111.91;5101070;28;20625;-67
2022/11/19 06:06:41;;;;;;;;;;;;;;;-142.75;100.00;78137.50;5101886;28;19911;-67
2022/11/19 06:09:07;;;;;;;;;;;;;;;-142.75;100.00;78157.19;5102901;28;19950;-67
2022/11/19 06:11:48;;;;;;;;;;;;;;;-142.75;100.00;78143.41;5100883;28;21486;-67
2022/11/19 06:14:14;;;;;;;;;;;;;;;-142.75;100.00;78149.31;5102968;28;19911;-69
2022/11/19 06:16:39;;;;;;;;;;;;;;;-142.75;100.00;78133.56;5101494;28;19912;-67
2022/11/19 06:19:05;;;;;;;;;;;;;;;-142.75;100.00;78155.22;5101172;28;19918;-69
2022/11/19 06:21:30;;;;;;;;;;;;;;;-142.75;100.00;78167.03;5100652;28;19912;-67
2022/11/19 06:23:55;;;;;;;;;;;;;;;-142.75;100.00;78153.25;5102631;28;20667;-67
2022/11/19 06:26:24;;;;;;;;;;;;;;;-142.75;100.00;78178.84;5101456;28;20478;-67
2022/11/19 06:28:50;;;;;;;;;;;;;;;-142.75;100.00;78200.53;5101512;28;19911;-67
2022/11/19 06:31:15;;;;;;;;;;;;;;;-142.75;100.00;78204.47;5102024;28;19912;-67
2022/11/19 06:33:40;;;;;;;;;;;;;;;-142.75;100.00;78216.28;5101977;28;19912;-67
2022/11/19 06:36:05;;;;;;;;;;;;;;;-142.75;100.00;78210.38;5102173;28;19965;-67
2022/11/19 06:38:31;;;;;;;;;;;;;;;-142.75;100.00;78232.03;5100727;28;19943;-67
2022/11/19 06:40:56;;;;;;;;;;;;;;;-142.75;100.00;78222.19;5102207;28;19916;-67
2022/11/19 06:43:21;;;;;;;;;;;;;;;-142.75;100.00;78204.47;5101691;28;20034;-67
2022/11/19 06:45:46;;;;;;;;;;;;;;;-142.75;100.00;78218.25;5101980;28;20683;-68
2022/11/19 06:48:11;;;;;;;;;;;;;;;-142.75;100.00;78212.34;5099952;28;19939;-70
2022/11/19 06:50:37;;;;;;;;;;;;;;;-142.75;100.00;78196.59;5101299;28;19911;-69
2022/11/19 06:53:02;;;;;;;;;;;;;;;-142.75;100.00;78202.50;5101836;28;19918;-67
2022/11/19 06:55:27;;;;;;;;;;;;;;;-142.75;100.00;78212.34;5101317;28;19969;-67
2022/11/19 06:57:52;;;;;;;;;;;;;;;-142.75;100.00;78212.34;5101909;28;19962;-67
2022/11/19 07:00:17;;;;;;;;;;;;;;;-142.75;100.00;78224.16;5100350;28;19990;-69
2022/11/19 07:02:43;;;;;;;;;;;;;;;-142.75;100.00;78232.03;5101838;28;19915;-69
2022/11/19 07:05:08;;;;;;;;;;;;;;;-142.75;100.00;78228.09;5098944;28;19912;-69
2022/11/19 07:07:33;;;;;;;;;;;;;;;-142.75;100.00;78247.78;5097783;28;20020;-67
2022/11/19 07:09:59;;;;;;;;;;;;;;;-142.75;100.00;78243.84;5100556;28;19912;-69
2022/11/19 07:12:24;;;;;;;;;;;;;;;-142.75;100.00;78243.84;5100986;28;19911;-70
2022/11/19 07:14:49;;;;;;;;;;;;;;;-142.75;100.00;78261.56;5101806;28;19965;-67
2022/11/19 07:17:14;;;;;;;;;;;;;;;-142.75;100.00;78271.41;5100628;28;20422;-67
2022/11/19 07:19:39;;;;;;;;;;;;;;;-142.75;100.00;78291.09;5101204;28;19946;-68
2022/11/19 07:22:05;;;;;;;;;;;;;;;-142.75;100.00;78269.44;5101413;28;19907;-69
2022/11/19 07:24:30;;;;;;;;;;;;;;;-142.75;100.00;78265.50;5100715;28;19916;-69
2022/11/19 07:26:55;;;;;;;;;;;;;;;-142.75;100.00;78275.34;5092283;28;19935;-69
2022/11/19 07:29:20;;;;;;;;;;;;;;;-142.75;100.00;78255.66;5080916;28;19930;-69
2022/11/19 07:31:49;;;;;;;;;;;;;;;-142.75;100.00;78295.06;5081162;28;19959;-69
2022/11/19 07:34:14;;;;;;;;;;;;;;;-142.75;100.00;78289.13;5080897;28;19915;-69
2022/11/19 07:36:40;;;;;;;;;;;;;;;-142.75;100.00;78271.41;5079877;28;19920;-69
2022/11/19 07:39:05;;;;;;;;;;;;;;;-142.75;100.00;78285.19;5081132;28;20002;-69
2022/11/19 07:44:14;;;;;;;;;;;;;;;-142.75;100.00;78314.75;5080426;28;19923;-69
2022/11/19 07:46:40;;;;;;;;;;;;;;;-142.75;100.00;78300.97;5079792;28;19912;-69
2022/11/19 07:49:05;;;;;;;;;;;;;;;-142.75;100.00;78310.81;5080721;28;19955;-69
2022/11/19 07:51:30;;;;;;;;;;;;;;;-142.75;100.00;78300.97;5080227;28;19912;-69
2022/11/19 07:53:55;;;;;;;;;;;;;;;-142.75;100.00;78310.81;5063063;28;19994;-69
2022/11/19 07:56:21;;;;;;;;;;;;;;;-142.75;100.00;78322.63;5079973;28;19953;-69
2022/11/19 07:58:46;;;;;;;;;;;;;;;-142.75;100.00;78320.66;5079357;28;20732;-69
2022/11/19 08:01:13;;;;;;;;;;;;;;;-142.75;100.00;78328.53;5080381;28;20005;-69
2022/11/19 08:03:41;;;;;;;;;;;;;;;-142.75;100.00;78340.34;5080115;28;19912;-69
2022/11/19 08:06:06;;;;;;;;;;;;;;;-142.75;100.00;78330.50;5061971;28;20664;-69
2022/11/19 08:08:32;;;;;;;;;;;;;;;-142.75;100.00;78326.56;5081206;28;19912;-69
2022/11/19 08:11:01;;;;;;;;;;;;;;;-142.75;100.00;78350.19;5084254;28;19912;-69
2022/11/19 08:13:26;;;;;;;;;;;;;;;-142.75;100.00;78344.28;5083957;28;19919;-69
2022/11/19 08:15:57;;;;;;;;;;;;;;;-142.75;100.00;78360.03;5066327;28;19940;-69
2022/11/19 08:18:23;;;;;;;;;;;;;;;-142.75;100.00;78356.09;5081920;28;19957;-69
2022/11/19 08:20:48;;;;;;;;;;;;;;;-142.75;100.00;78348.22;5084254;28;19915;-69
2022/11/19 08:23:13;;;;;;;;;;;;;;;-142.75;100.00;78334.44;5084625;28;19912;-69
2022/11/19 08:25:40;;;;;;;;;;;;;;;-142.75;100.00;78354.13;5083971;28;19916;-69
2022/11/19 08:28:06;;;;;;;;;;;;;;;-142.75;100.00;78363.97;5083553;28;19966;-69
2022/11/19 08:30:32;;;;;;;;;;;;;;;-142.75;100.00;78369.88;5083874;28;19911;-69
2022/11/19 08:32:57;;;;;;;;;;;;;;;-142.75;100.00;78381.69;5084357;28;19926;-69
2022/11/19 08:35:22;;;;;;;;;;;;;;;-142.75;100.00;78373.81;5083702;28;19908;-69
2022/11/19 08:37:48;;;;;;;;;;;;;;;-142.75;100.00;78375.78;5065584;28;19919;-69
2022/11/19 08:40:13;;;;;;;;;;;;;;;-142.75;100.00;78371.84;5084038;28;20019;-68
2022/11/19 08:45:22;;;;;;;;;;;;;;;-142.75;100.00;78363.97;5083555;28;19923;-69
2022/11/19 08:47:47;;;;;;;;;;;;;;;-142.75;100.00;78377.75;5083469;28;19912;-68
2022/11/19 08:50:12;;;;;;;;;;;;;;;-142.75;100.00;78381.69;5083645;28;20210;-69
2022/11/19 08:52:38;;;;;;;;;;;;;;;-142.75;100.00;78377.75;5083084;28;19927;-70
2022/11/19 08:55:03;;;;;;;;;;;;;;;-142.75;100.00;78360.03;5083393;28;20850;-70
2022/11/19 08:57:28;;;;;;;;;;;;;;;-142.75;100.00;78344.28;5082003;28;19915;-70
2022/11/19 08:59:53;;;;;;;;;;;;;;;-142.75;100.00;78350.19;5083329;28;20765;-70
2022/11/19 09:02:19;;;;;;;;;;;;;;;-142.75;100.00;78360.03;5083086;28;20007;-70
2022/11/19 09:04:44;;;;;;;;;;;;;;;-142.75;100.00;78360.03;5045152;28;20082;-70
2022/11/19 09:07:09;;;;;;;;;;;;;;;-142.75;100.00;78365.94;5016507;28;19934;-72
2022/11/19 09:09:34;;;;;;;;;;;;;;;-142.75;100.00;78379.72;5018347;28;20213;-70
2022/11/19 09:12:00;;;;;;;;;;;;;;;-142.75;100.00;78393.50;5051817;22;19920;-67
2022/11/19 09:14:25;;;;;;;;;;;;;;;-142.75;100.00;78397.44;5013721;28;20233;-67
2022/11/19 09:16:50;;;;;;;;;;;;;;;-142.75;100.00;78387.59;5026976;28;19920;-68
2022/11/19 09:19:15;;;;;;;;;;;;;;;-142.75;100.00;78377.75;5067757;28;19961;-66
2022/11/19 09:21:41;;;;;;;;;;;;;;;-142.75;100.00;78365.94;5077737;28;19912;-67
2022/11/19 09:24:06;;;;;;;;;;;;;;;-142.75;100.00;78381.69;5083584;28;19920;-66
2022/11/19 09:26:31;;;;;;;;;;;;;;;-142.75;100.00;78401.38;5087308;28;20456;-67
2022/11/19 09:28:57;;;;;;;;;;;;;;;-142.75;100.00;78391.53;5086314;28;19912;-69
2022/11/19 09:31:22;;;;;;;;;;;;;;;-142.75;100.00;78389.56;5085246;28;20022;-68
2022/11/19 09:33:49;;;;;;;;;;;;;;;-142.75;100.00;78409.28;5089764;28;19991;-67
2022/11/19 09:36:15;;;;;;;;;;;;;;;-142.75;100.00;78377.75;5060206;28;20213;-69
2022/11/19 09:38:40;;;;;;;;;;;;;;;-142.75;100.00;78397.44;5038663;28;20411;-67
2022/11/19 09:41:24;;;;;;;;;;;;;;;-142.75;100.00;78401.38;5025495;28;19926;-67
2022/11/19 09:43:50;;;;;;;;;;;;;;;-142.75;100.00;78373.81;5044503;28;20508;-66
2022/11/19 09:46:28;;;;;;;;;;;;;;;-142.75;100.00;78377.75;5038143;28;20014;-67
2022/11/19 09:48:54;;;;;;;;;;;;;;;-142.75;100.00;78365.94;5006161;28;20428;-66
2022/11/19 09:51:27;;;;;;;;;;;;;;;-142.75;100.00;78399.44;5016870;28;20469;-66
2022/11/19 09:53:58;;;;;;;;;;;;;;;-142.75;100.00;78401.38;5020390;28;19916;-66
2022/11/19 09:56:29;;;;;;;;;;;;;;;-142.75;100.00;78375.78;5028220;28;20412;-66
2022/11/19 09:58:55;;;;;;;;;;;;;;;-142.75;100.00;78397.44;5031139;28;20455;-66
2022/11/19 10:01:21;;;;;;;;;;;;;;;-142.75;100.00;78389.56;5041895;28;19912;-66
2022/11/19 10:03:50;;;;;;;;;;;;;;;-142.75;100.00;78397.44;5037023;28;19926;-67
2022/11/19 10:06:16;;;;;;;;;;;;;;;-142.75;100.00;78405.34;5027660;28;19942;-67
2022/11/19 10:09:01;;;;;;;;;;;;;;;-142.75;100.00;78413.22;5029454;28;20197;-68
2022/11/19 10:11:36;;;;;;;;;;;;;;;-142.75;100.00;78421.09;5043497;28;19926;-67
2022/11/19 10:14:08;;;;;;;;;;;;;;;-142.75;100.00;78397.44;5020324;28;19938;-67
2022/11/19 10:16:43;;;;;;;;;;;;;;;-142.75;100.00;78446.69;5037056;28;19912;-67
2022/11/19 10:19:27;;;;;;;;;;;;;;;-142.75;100.00;78436.84;5021709;28;19938;-67
2022/11/19 10:22:03;;;;;;;;;;;;;;;-142.75;100.00;78444.72;5025428;28;19911;-68
2022/11/19 10:24:37;;;;;;;;;;;;;;;-142.75;100.00;78446.69;5029378;28;19942;-67
2022/11/19 10:27:11;;;;;;;;;;;;;;;-142.75;100.00;78456.53;5043442;28;19969;-67
2022/11/19 10:29:37;;;;;;;;;;;;;;;-142.75;100.00;78440.78;5043648;28;19947;-67
2022/11/19 10:32:17;;;;;;;;;;;;;;;-142.75;100.00;78423.06;5028652;28;19923;-67
2022/11/19 10:34:44;;;;;;;;;;;;;;;-142.75;100.00;78432.91;5016098;28;19912;-67
2022/11/19 10:37:12;;;;;;;;;;;;;;;-142.75;100.00;78436.84;5032375;28;20503;-67
2022/11/19 10:39:45;;;;;;;;;;;;;;;-142.75;100.00;78454.56;5031854;28;20030;-66
2022/11/19 10:42:20;;;;;;;;;;;;;;;-142.75;100.00;78432.91;5039637;28;19912;-66
2022/11/19 10:44:49;;;;;;;;;;;;;;;-142.75;100.00;78450.63;5016905;28;20705;-67
2022/11/19 10:47:14;;;;;;;;;;;;;;;-142.75;100.00;78425.03;5026137;28;20093;-67
2022/11/19 10:49:41;;;;;;;;;;;;;;;-142.75;100.00;78427.00;5033138;28;20310;-67
2022/11/19 10:52:16;;;;;;;;;;;;;;;-142.75;100.00;78456.53;5024853;28;20042;-67
2022/11/19 10:54:43;;;;;;;;;;;;;;;-142.75;100.00;78472.28;5026922;28;20039;-67
2022/11/19 10:57:10;;;;;;;;;;;;;;;-142.75;100.00;78480.16;5034755;28;19977;-67
2022/11/19 10:59:39;;;;;;;;;;;;;;;-142.75;100.00;78440.78;5044462;28;19908;-67
2022/11/19 11:02:17;;;;;;;;;;;;;;;-142.75;100.00;78425.03;5028294;28;20184;-67
2022/11/19 11:04:59;;;;;;;;;;;;;;;-142.75;100.00;78409.28;5007780;28;20528;-67
2022/11/19 11:07:43;;;;;;;;;;;;;;;-142.75;100.00;78430.94;5039107;28;20102;-67
2022/11/19 11:10:25;;;;;;;;;;;;;;;-142.75;100.00;78425.03;5043838;28;19938;-67
2022/11/19 11:15:42;;;;;;;;;;;;;;;-142.75;100.00;78425.03;5029326;28;20708;-66
2022/11/19 11:18:08;;;;;;;;;;;;;;;-142.75;100.00;78425.03;5019798;28;20520;-67
2022/11/19 11:20:35;;;;;;;;;;;;;;;-142.75;100.00;78405.34;5034858;28;19915;-65
2022/11/19 11:23:15;;;;;;;;;;;;;;;-142.75;100.00;78423.06;5041808;28;19934;-65
2022/11/19 11:25:49;;;;;;;;;;;;;;;-142.75;100.00;78448.66;5039143;28;19915;-66
2022/11/19 11:28:16;;;;;;;;;;;;;;;-142.75;100.00;78432.91;5015788;28;19923;-65
2022/11/19 11:31:00;;;;;;;;;;;;;;;-142.75;100.00;78430.94;5008361;28;19911;-66
2022/11/19 11:33:34;;;;;;;;;;;;;;;-142.75;100.00;78413.22;5036484;28;19988;-66
2022/11/19 11:36:01;;;;;;;;;;;;;;;-142.75;100.00;78432.91;5008818;28;19947;-66
2022/11/19 11:38:27;;;;;;;;;;;;;;;-142.75;100.00;78427.00;5026134;28;19916;-66
2022/11/19 11:41:19;;;;;;;;;;;;;;;-142.75;100.00;78428.97;5032598;28;20440;-66
2022/11/19 11:44:00;;;;;;;;;;;;;;;-142.75;100.00;78413.22;4990101;28;19908;-66
2022/11/19 11:46:52;;;;;;;;;;;;;;;-142.75;100.00;78387.59;5016243;28;19996;-66
2022/11/19 11:49:28;;;;;;;;;;;;;;;-142.75;100.00;78385.63;4998062;28;20432;-65
2022/11/19 11:51:57;;;;;;;;;;;;;;;-142.75;100.00;78397.44;5028256;28;19911;-66
2022/11/19 11:54:22;;;;;;;;;;;;;;;-142.75;100.00;78397.44;5035059;28;19955;-66
2022/11/19 11:56:47;;;;;;;;;;;;;;;-142.75;100.00;78405.34;5041567;28;20262;-66
2022/11/19 11:59:22;;;;;;;;;;;;;;;-142.75;100.00;78419.13;5023730;28;20266;-66
2022/11/19 12:02:02;;;;;;;;;;;;;;;-142.75;100.00;78425.03;5030690;28;19912;-65
2022/11/19 12:04:28;;;;;;;;;;;;;;;-142.75;100.00;78417.16;5028643;28;19943;-67
2022/11/19 12:07:19;;;;;;;;;;;;;;;-142.75;100.00;78413.22;5029294;28;20233;-66
2022/11/19 12:09:44;;;;;;;;;;;;;;;-142.75;100.00;78405.34;5020595;28;20441;-65
2022/11/19 12:12:31;;;;;;;;;;;;;;;-142.75;100.00;78407.31;5032438;28;19926;-68
2022/11/19 12:15:04;;;;;;;;;;;;;;;-142.75;100.00;78428.97;5027964;28;19941;-67
2022/11/19 12:17:29;;;;;;;;;;;;;;;-142.75;100.00;78391.53;5038345;28;20469;-66
2022/11/19 12:19:58;;;;;;;;;;;;;;;-142.75;100.00;78389.56;5040838;28;19907;-67
2022/11/19 12:22:36;;;;;;;;;;;;;;;-142.75;100.00;78369.88;5038088;28;19990;-67
2022/11/19 12:25:04;;;;;;;;;;;;;;;-142.75;100.00;78362.00;5038453;28;19939;-66
2022/11/19 12:28:05;;;;;;;;;;;;;;;-142.75;100.00;78362.00;5025408;28;19915;-67
2022/11/19 12:30:35;;;;;;;;;;;;;;;-142.75;100.00;78354.13;4951733;28;19913;-67
2022/11/19 12:33:21;;;;;;;;;;;;;;;-142.75;100.00;78365.94;5008558;28;19912;-67
2022/11/19 12:35:53;;;;;;;;;;;;;;;-142.75;100.00;78365.94;5034430;28;20058;-72
2022/11/19 12:38:23;;;;;;;;;;;;;;;-142.75;100.00;78367.91;5025830;28;19939;-68
2022/11/19 12:40:56;;;;;;;;;;;;;;;-142.75;100.00;78362.00;5032877;28;19911;-67
2022/11/19 12:43:34;;;;;;;;;;;;;;;-142.75;100.00;78373.81;5038416;28;19912;-67